Data for 09/13/2015

Time Sea-Level Adjusted Pressure Absolute Pressure Temperature Relative Humidity Dew Point   
(mb) (inHg) (mb) (inHg) (C) (F) (%) (C) (F)
00:05 1017 30.03 846 24.98 18 64.5 23 -3.2 26.2
00:10 1017 30.03 846 24.98 18.1 64.6 22 -3.6 25.6
00:15 1017 30.03 846 24.98 18.3 64.9 24 -2.7 27.2
00:20 1017 30.03 846 24.98 18.5 65.4 23 -2.7 27.1
00:25 1017 30.03 846 24.98 18.1 64.6 24 -2.7 27.2
00:30 1017 30.03 846 24.98 17.7 63.9 25 -2.6 27.3
00:35 1017 30.03 846 24.98 17.5 63.5 25 -2.4 27.6
00:40 1017 30.03 846 24.98 17.4 63.3 25 -2.5 27.6
00:45 1017 30.03 846 24.98 17.4 63.3 24 -3.2 26.3
00:50 1017 30.03 846 24.98 17.7 63.8 23 -3.7 25.4
00:55 1017 30.03 846 24.98 18.1 64.6 22 -3.8 25.1
01:00 1017 30.03 846 24.98 18.2 64.7 23 -3.3 26.1
01:05 1017 30.03 846 24.98 17.7 63.8 25 -2.7 27.2
01:10 1017 30.03 846 24.98 17.2 63 24 -3.2 26.3
01:15 1017 30.03 846 24.98 17.3 63.2 26 -2.5 27.5
01:20 1017 30.03 846 24.98 17 62.6 26 -2.6 27.4
01:25 1017 30.03 846 24.98 16.9 62.4 27 -2.2 28
01:30 1017 30.03 846 24.98 16.7 62 27 -2.1 28.2
01:35 1017 30.03 846 24.98 16.6 61.8 26 -2.7 27.2
01:40 1016 30 846 24.98 16.4 61.4 27 -2.7 27.2
01:45 1016 30 846 24.98 16.3 61.4 28 -2.3 27.9
01:50 1016 30 846 24.98 16 60.9 28 -2.1 28.2
01:55 1016 30 846 24.98 16.1 61 28 -2.4 27.6
02:00 1016 30 845 24.95 16.1 61 29 -2 28.5
02:05 1016 30 845 24.95 15.9 60.5 29 -2 28.3
02:10 1016 30 845 24.95 15.4 59.7 29 -2.5 27.6
02:15 1016 30 845 24.95 15.8 60.5 28 -2.5 27.5
02:20 1016 30 845 24.95 16.1 60.9 28 -2.4 27.6
02:25 1016 30 845 24.95 16.1 61 28 -2.5 27.5
02:30 1016 30 845 24.95 16.1 61 27 -2.9 26.7
02:35 1016 30 845 24.95 16.6 61.9 26 -2.8 26.9
02:40 1016 30 845 24.95 16.7 62.1 26 -2.5 27.5
02:45 1016 30 845 24.95 16.7 62 27 -2.5 27.5
02:50 1016 30 845 24.95 16.7 62.1 27 -2.1 28.1
02:55 1016 30 845 24.95 16.8 62.3 27 -2.2 28
03:00 1016 30 845 24.95 16.5 61.6 28 -1.8 28.8
03:05 1016 30 845 24.95 16.1 60.9 29 -2 28.4
03:10 1016 30 845 24.95 16.1 61 36 1 33.9
03:15 1016 30 845 24.95 16 60.9 29 -1.8 28.7
03:20 1016 30 845 24.95 15.8 60.4 29 -1.9 28.6
03:25 1016 30 845 24.95 16 60.8 29 -2.2 28.1
03:30 1016 30 845 24.95 16.2 61.2 29 -1.9 28.6
03:35 1016 30 845 24.95 16.2 61.1 29 -2 28.4
03:40 1016 30 845 24.95 16.2 61.2 29 -1.7 28.9
03:45 1016 30 845 24.95 16 60.8 29 -1.7 29
03:50 1016 30 845 24.95 16.2 61.2 28 -2 28.5
03:55 1016 30 845 24.95 16.7 62 28 -1.7 29
04:00 1016 30 845 24.95 16.7 62.1 28 -1.7 28.9
04:05 1016 30 845 24.95 16.9 62.3 28 -1.7 28.9
04:10 1016 30 845 24.95 17 62.6 28 -1.3 29.6
04:15 1016 30 845 24.95 16.4 61.4 28 -1.9 28.6
04:20 1016 30 845 24.95 16.5 61.7 30 -1.2 29.8
04:25 1015 29.97 845 24.95 16.1 61 30 -1.4 29.4
04:30 1015 29.97 845 24.95 16.6 61.9 28 -1.9 28.6
04:35 1015 29.97 845 24.95 16.7 62.1 31 -0.3 31.5
04:40 1015 29.97 845 24.95 16.3 61.3 29 -1.5 29.2
04:45 1015 29.97 844 24.92 16.6 61.9 32 0.1 32.2
04:50 1015 29.97 844 24.92 15.5 59.8 34 -0.1 31.8
04:55 1015 29.97 844 24.92 14.8 58.7 39 1.1 33.9
05:00 1015 29.97 844 24.92 14.2 57.5 39 0.5 32.9
05:05 1015 29.97 844 24.92 14 57.2 42 1.4 34.5
05:10 1015 29.97 844 24.92 13.6 56.5 44 1.5 34.8
05:15 1015 29.97 844 24.92 13.6 56.5 40 0.3 32.6
05:20 1015 29.97 844 24.92 14 57.1 43 1.7 35
05:25 1015 29.97 844 24.92 13.4 56 44 1.5 34.8
05:30 1015 29.97 844 24.92 13 55.3 44 1.1 34
05:35 1015 29.97 844 24.92 13.1 55.5 45 1.4 34.5
05:40 1015 29.97 844 24.92 13.5 56.3 41 0.7 33.2
05:45 1015 29.97 844 24.92 13.6 56.5 42 0.9 33.6
05:50 1015 29.97 844 24.92 13.2 55.7 44 1.3 34.4
05:55 1015 29.97 844 24.92 12.8 55.1 45 1.2 34.2
06:00 1015 29.97 844 24.92 12.9 55.3 44 1 33.7
06:05 1015 29.97 844 24.92 13 55.5 44 1.2 34.2
06:10 1015 29.97 844 24.92 12.9 55.2 46 1.7 35.1
06:15 1015 29.97 844 24.92 12.5 54.5 46 1.3 34.4
06:20 1015 29.97 844 24.92 12.8 55 43 0.5 32.9
06:25 1015 29.97 844 24.92 13.7 56.7 40 0.3 32.5
06:30 1015 29.97 844 24.92 14.2 57.5 39 0.5 33
06:35 1015 29.97 844 24.92 14.1 57.3 42 1.5 34.6
06:40 1015 29.97 844 24.92 13.4 56.2 44 1.6 34.8
06:45 1015 29.97 844 24.92 13.1 55.6 43 0.8 33.5
06:50 1015 29.97 844 24.92 13.8 56.9 36 -1 30.3
06:55 1015 29.97 844 24.92 14.8 58.6 36 -0.1 31.8
07:00 1015 29.97 844 24.92 15.7 60.2 34 0 32
07:05 1015 29.97 844 24.92 15.8 60.5 37 1.4 34.5
07:10 1015 29.97 844 24.92 15.5 60 37 1.2 34.1
07:15 1015 29.97 844 24.92 15.6 60.1 37 1 33.7
07:20 1015 29.97 844 24.92 15.8 60.5 39 1.9 35.4
07:25 1015 29.97 844 24.92 16 60.8 39 2 35.6
07:30 1015 29.97 844 24.92 16.3 61.3 38 1.8 35.3
07:35 1015 29.97 844 24.92 16.6 61.9 35 1.2 34.1
07:40 1015 29.97 844 24.92 17.2 62.9 33 0.7 33.3
07:45 1015 29.97 844 24.92 18 64.5 33 1.8 35.2
07:50 1015 29.97 844 24.92 18.9 66 34 3 37.4
07:55 1015 29.97 844 24.92 19.1 66.4 32 2.4 36.3
08:00 1015 29.97 844 24.92 18.9 65.9 32 1.9 35.4
08:05 1015 29.97 844 24.92 18.6 65.4 32 1.6 34.9
08:10 1015 29.97 844 24.92 18.7 65.7 32 1.9 35.3
08:15 1015 29.97 844 24.92 18.9 66 32 1.8 35.3
08:20 1015 29.97 844 24.92 19.2 66.5 27 -0.3 31.4
08:25 1015 29.97 844 24.92 19.4 66.8 28 0.4 32.8
08:30 1015 29.97 844 24.92 19.6 67.3 27 0.3 32.5
08:35 1015 29.97 844 24.92 20.1 68.2 27 0.5 32.9
08:40 1015 29.97 844 24.92 20.9 69.7 24 -0.2 31.7
08:45 1015 29.97 844 24.92 21.4 70.6 25 0.7 33.3
08:50 1015 29.97 844 24.92 22 71.5 24 0.8 33.5
08:55 1015 29.97 844 24.92 22.1 71.7 22 -0.2 31.7
09:00 1015 29.97 844 24.92 22.1 71.7 22 -0.6 30.9
09:05 1015 29.97 844 24.92 22.3 72.2 21 -0.7 30.7
09:10 1015 29.97 844 24.92 22.5 72.4 22 -0.3 31.4
09:15 1015 29.97 844 24.92 22.9 73.1 21 -0.6 30.9
09:20 1015 29.97 844 24.92 23.2 73.8 19 -1.2 29.8
09:25 1015 29.97 844 24.92 23.3 73.9 20 -1 30.3
09:30 1015 29.97 844 24.92 23.3 73.9 19 -1.2 29.8
09:35 1015 29.97 844 24.92 23.5 74.3 19 -1.1 30
09:40 1014 29.94 844 24.92 23 73.4 21 -0.3 31.4
09:45 1014 29.94 844 24.92 23.3 73.9 20 -0.5 31.1
09:50 1014 29.94 844 24.92 23.6 74.4 21 0 32
09:55 1014 29.94 844 24.92 23.9 75 19 -0.6 30.9
10:00 1014 29.94 844 24.92 24.1 75.4 19 -0.7 30.8
10:05 1014 29.94 844 24.92 24.1 75.4 20 -0.2 31.6
10:10 1014 29.94 843 24.89 24.5 76 20 0 32
10:15 1014 29.94 843 24.89 24.6 76.3 19 -0.6 31
10:20 1014 29.94 843 24.89 24 75.2 19 -0.5 31.1
10:25 1014 29.94 843 24.89 24.4 75.8 19 -0.7 30.7
10:30 1014 29.94 843 24.89 25.3 77.6 18 -0.1 31.8
10:35 1014 29.94 843 24.89 25.4 77.7 19 0.5 32.9
10:40 1014 29.94 843 24.89 25.6 78.2 19 0.3 32.6
10:45 1014 29.94 843 24.89 26.3 79.3 19 0.8 33.4
10:50 1014 29.94 843 24.89 25.8 78.4 18 -0.3 31.5
10:55 1014 29.94 843 24.89 25.2 77.3 19 -0.2 31.7
11:00 1013 29.91 843 24.89 25.1 77.2 18 -1 30.2
11:05 1013 29.91 843 24.89 25.8 78.4 17 -0.5 31
11:10 1013 29.91 842 24.86 25.6 78.1 17 -1 30.2
11:15 1013 29.91 842 24.86 26.6 79.9 17 -0.2 31.7
11:20 1013 29.91 842 24.86 27.3 81.2 15 -1.2 29.8
11:25 1013 29.91 842 24.86 28 82.3 15 -0.8 30.5
11:30 1013 29.91 842 24.86 27.8 82 15 -0.6 30.9
11:35 1013 29.91 842 24.86 27.5 81.5 15 -0.8 30.5
11:40 1013 29.91 842 24.86 27.7 81.9 16 -0.5 31.1
11:45 1013 29.91 842 24.86 27 80.6 17 -0.1 31.9
11:50 1012 29.88 842 24.86 27.3 81.1 15 -1.2 29.8
11:55 1012 29.88 841 24.83 27.2 81 15 -1.1 30.1
12:00 1012 29.88 841 24.83 26.8 80.3 17 -0.1 31.8
12:05 1012 29.88 841 24.83 27.8 82 15 -0.5 31.2
12:10 1012 29.88 841 24.83 28.3 82.9 14 -1 30.2
12:15 1012 29.88 841 24.83 27.8 82 15 -1.2 29.8
12:20 1012 29.88 841 24.83 28.4 83.2 14 -1.2 29.9
12:25 1012 29.88 841 24.83 27.9 82.3 15 -1.1 30.1
12:30 1012 29.88 841 24.83 28 82.4 15 -0.9 30.5
12:35 1012 29.88 841 24.83 28.4 83.2 14 -0.9 30.3
12:40 1011 29.85 841 24.83 27.8 82 15 -1.2 29.9
12:45 1011 29.85 841 24.83 28.2 82.8 15 -0.9 30.3
12:50 1011 29.85 841 24.83 28 82.5 15 -1.1 30.1
12:55 1011 29.85 840 24.81 28.6 83.4 15 -0.6 31
13:00 1011 29.85 840 24.81 28.1 82.6 15 -0.7 30.7
13:05 1011 29.85 840 24.81 27.5 81.5 15 -1.2 29.8
13:10 1011 29.85 840 24.81 28 82.4 15 -0.8 30.6
13:15 1011 29.85 840 24.81 28.3 83 15 -0.3 31.4
13:20 1011 29.85 840 24.81 28.6 83.5 15 -0.6 30.9
13:25 1011 29.85 840 24.81 29 84.3 15 -0.2 31.6
13:30 1011 29.85 840 24.81 28.8 83.8 15 -0.3 31.5
13:35 1011 29.85 840 24.81 27.8 82 15 -0.8 30.6
13:40 1011 29.85 840 24.81 28.4 83.1 15 -0.7 30.7
13:45 1011 29.85 840 24.81 28.4 83.1 15 -0.4 31.2
13:50 1011 29.85 840 24.81 29 84.1 14 -0.5 31.1
13:55 1011 29.85 840 24.81 28.5 83.3 15 -0.5 31
14:00 1010 29.83 840 24.81 28.6 83.5 15 -0.3 31.5
14:05 1010 29.83 840 24.81 29.2 84.5 15 0 32.1
14:10 1010 29.83 840 24.81 29.2 84.5 14 -0.6 30.9
14:15 1010 29.83 839 24.78 29.5 85 15 0.1 32.2
14:20 1010 29.83 839 24.78 29.5 85.1 14 -0.3 31.4
14:25 1010 29.83 839 24.78 29.8 85.6 14 -0.2 31.7
14:30 1010 29.83 839 24.78 29.7 85.4 14 -0.2 31.6
14:35 1010 29.83 839 24.78 29.4 85 14 -0.6 30.9
14:40 1010 29.83 839 24.78 29.3 84.7 14 -0.6 30.9
14:45 1010 29.83 839 24.78 29.4 84.9 13 -1.1 30
14:50 1010 29.83 839 24.78 29.4 85 14 -0.5 31.1
14:55 1010 29.83 839 24.78 29.5 85.1 14 -0.7 30.7
15:00 1010 29.83 839 24.78 29.6 85.3 13 -1.1 30
15:05 1010 29.83 839 24.78 30.4 86.7 13 -1.3 29.7
15:10 1009 29.8 839 24.78 30.4 86.6 13 -0.6 30.9
15:15 1009 29.8 839 24.78 30.3 86.6 14 -0.1 31.9
15:20 1009 29.8 839 24.78 30.5 86.9 13 -1 30.2
15:25 1009 29.8 839 24.78 29.9 85.9 13 -1 30.1
15:30 1009 29.8 839 24.78 29.6 85.3 13 -1.2 29.8
15:35 1009 29.8 839 24.78 29.4 84.8 14 -0.5 31
15:40 1009 29.8 839 24.78 29.5 85.1 14 -0.6 30.9
15:45 1009 29.8 839 24.78 29.4 84.8 14 -0.2 31.6
15:50 1009 29.8 838 24.75 29.3 84.7 14 -1.1 30
15:55 1009 29.8 838 24.75 29.1 84.3 14 -1 30.3
16:00 1009 29.8 838 24.75 29.1 84.4 14 -0.6 31
16:05 1009 29.8 838 24.75 29.2 84.6 14 -1 30.3
16:10 1009 29.8 838 24.75 29 84.1 14 -0.9 30.4
16:15 1009 29.8 838 24.75 28.7 83.7 14 -0.8 30.6
16:20 1009 29.8 838 24.75 28.6 83.5 14 -1 30.3
16:25 1009 29.8 838 24.75 28.7 83.7 14 -0.7 30.8
16:30 1009 29.8 838 24.75 28.7 83.6 14 -0.6 30.8
16:35 1009 29.8 838 24.75 28.6 83.5 14 -1 30.3
16:40 1009 29.8 838 24.75 28.5 83.2 14 -1 30.2
16:45 1009 29.8 838 24.75 28.5 83.2 14 -1.7 28.9
16:50 1009 29.8 838 24.75 28.6 83.4 13 -2.1 28.1
16:55 1009 29.8 838 24.75 28.5 83.3 14 -1.1 30
17:00 1009 29.8 838 24.75 28.4 83 13 -2 28.4
17:05 1009 29.8 838 24.75 28.4 83.1 14 -1.5 29.3
17:10 1009 29.8 838 24.75 28.3 83 13 -2 28.4
17:15 1009 29.8 838 24.75 28.2 82.7 14 -1.8 28.8
17:20 1009 29.8 838 24.75 27.8 82.1 14 -1.4 29.5
17:25 1009 29.8 838 24.75 27.6 81.7 14 -1.8 28.8
17:30 1009 29.8 838 24.75 27.5 81.5 15 -1.1 30
17:35 1009 29.8 838 24.75 27.3 81.2 15 -1.6 29.2
17:40 1009 29.8 838 24.75 27.1 80.7 15 -1.6 29.2
17:45 1009 29.8 838 24.75 27 80.5 15 -1.9 28.6
17:50 1009 29.8 838 24.75 26.7 80.1 15 -2.2 28.1
17:55 1009 29.8 838 24.75 26.5 79.7 15 -2.4 27.7
18:00 1009 29.8 838 24.75 26.3 79.3 15 -2.1 28.2
18:05 1009 29.8 838 24.75 26.2 79.1 15 -2 28.3
18:10 1009 29.8 838 24.75 26 78.8 15 -2.1 28.3
18:15 1009 29.8 838 24.75 25.7 78.3 17 -1.1 30.1
18:20 1009 29.8 838 24.75 25.5 78 15 -2.4 27.6
18:25 1009 29.8 838 24.75 25.3 77.5 17 -1.6 29.1
18:30 1009 29.8 838 24.75 25.1 77.2 17 -1.3 29.6
18:35 1009 29.8 838 24.75 24.8 76.7 17 -1.7 29
18:40 1009 29.8 838 24.75 24.5 76.1 17 -1.9 28.5
18:45 1009 29.8 838 24.75 24.4 75.8 18 -1 30.1
18:50 1009 29.8 838 24.75 24 75.2 20 -0.1 31.8
18:55 1009 29.8 838 24.75 23.7 74.6 20 -0.6 30.9
19:00 1009 29.8 839 24.78 23.6 74.4 20 -0.3 31.4
19:05 1009 29.8 839 24.78 23.4 74.2 22 0.5 32.9
19:10 1009 29.8 839 24.78 22.9 73.3 20 -0.7 30.8
19:15 1010 29.83 839 24.78 22.8 73 22 0.3 32.5
19:20 1010 29.83 839 24.78 22.2 72 24 0.7 33.3
19:25 1010 29.83 839 24.78 21.9 71.5 28 2.7 36.9
19:30 1010 29.83 839 24.78 21.5 70.6 27 1.7 35.1
19:35 1010 29.83 839 24.78 21.1 69.9 27 1.3 34.4
19:40 1010 29.83 839 24.78 20.5 68.9 26 0.7 33.3
19:45 1010 29.83 839 24.78 20.2 68.3 27 0.8 33.4
19:50 1010 29.83 839 24.78 19.9 67.7 28 0.8 33.4
19:55 1010 29.83 839 24.78 19.8 67.6 28 0.8 33.5
20:00 1010 29.83 839 24.78 19.7 67.4 26 -0 32
20:05 1010 29.83 839 24.78 19.6 67.3 26 -0.4 31.3
20:10 1010 29.83 839 24.78 19.6 67.2 25 -0.6 30.9
20:15 1010 29.83 839 24.78 19.5 67.2 25 -0.8 30.5
20:20 1010 29.83 839 24.78 19.3 66.7 25 -1.1 30
20:25 1010 29.83 840 24.81 19.1 66.4 24 -1.9 28.6
20:30 1011 29.85 840 24.81 19.1 66.4 23 -2.5 27.5
20:35 1011 29.85 840 24.81 19.3 66.7 22 -2.9 26.8
20:40 1011 29.85 840 24.81 20 68 20 -3.4 25.9
20:45 1011 29.85 840 24.81 20.3 68.6 20 -3.4 26
20:50 1011 29.85 840 24.81 20.3 68.6 20 -3.4 25.8
20:55 1011 29.85 840 24.81 20.2 68.4 20 -3.4 26
21:00 1011 29.85 840 24.81 19.8 67.6 21 -2.9 26.9
21:05 1011 29.85 840 24.81 19.3 66.8 22 -3 26.6
21:10 1011 29.85 840 24.81 19.1 66.4 22 -3 26.6
21:15 1011 29.85 840 24.81 19 66.2 23 -2.7 27.2
21:20 1011 29.85 840 24.81 18.6 65.5 28 -0.3 31.5
21:25 1011 29.85 840 24.81 17.8 64 29 -0.5 31.1
21:30 1011 29.85 840 24.81 17.4 63.3 28 -1 30.2
21:35 1011 29.85 840 24.81 17.6 63.7 26 -2.1 28.1
21:40 1011 29.85 840 24.81 18.1 64.5 25 -2 28.4
21:45 1011 29.85 840 24.81 18.1 64.5 25 -2 28.4
21:50 1011 29.85 840 24.81 17.8 64 27 -1.5 29.3
21:55 1011 29.85 840 24.81 17.3 63.1 29 -1 30.2
22:00 1011 29.85 840 24.81 16.9 62.4 29 -1 30.2
22:05 1011 29.85 840 24.81 16.5 61.8 30 -0.9 30.4
22:10 1011 29.85 840 24.81 16.3 61.4 30 -1.3 29.7
22:15 1011 29.85 840 24.81 16.7 62 29 -1.5 29.4
22:20 1011 29.85 840 24.81 16.8 62.3 29 -1.3 29.6
22:25 1011 29.85 840 24.81 16.6 61.9 30 -0.8 30.6
22:30 1011 29.85 840 24.81 16.1 60.9 33 -0.3 31.5
22:35 1011 29.85 840 24.81 15.2 59.3 40 1.7 35
22:40 1011 29.85 840 24.81 14.8 58.7 35 -0.3 31.4
22:45 1011 29.85 840 24.81 14.6 58.3 38 0.6 33
22:50 1011 29.85 840 24.81 14.7 58.5 36 -0.2 31.6
22:55 1011 29.85 840 24.81 14.6 58.2 37 -0 32
23:00 1011 29.85 840 24.81 14.1 57.3 38 0.1 32.2
23:05 1011 29.85 840 24.81 13.7 56.7 37 -0.5 31.1
23:10 1011 29.85 840 24.81 13.9 56.9 36 -0.7 30.8
23:15 1011 29.85 840 24.81 14 57.1 36 -0.6 30.9
23:20 1011 29.85 840 24.81 13.9 56.9 34 -1.5 29.3
23:25 1011 29.85 840 24.81 14.6 58.3 31 -2.4 27.7
23:30 1011 29.85 840 24.81 15.3 59.5 30 -2.2 28
23:35 1011 29.85 840 24.81 15.7 60.2 29 -2.4 27.6
23:40 1011 29.85 840 24.81 15.9 60.7 29 -2.2 28
23:45 1011 29.85 840 24.81 15.9 60.5 29 -1.9 28.6
23:50 1011 29.85 840 24.81 15.4 59.8 30 -2.1 28.2
23:55 1011 29.85 840 24.81 15.4 59.6 30 -2.2 28.1
24:00 1011 29.85 840 24.81 15.4 59.8 30 -1.9 28.5